• Season
  • Course
  • BIB Lookup
 
Durham, NC Durham, NC October 04, 2014

Overall

233 Runners
667.02 Miles Run
116 Hours Running

1 Mile

27 Runners
27.01 Miles Run
5 Hours Running
00:12:14 Avgerage Time
23 Average Age

5K

206 Runners
640.01 Miles Run
111 Hours Running
00:32:35 Avgerage Time
33 Average Age
Overall Place Gender Place Age Place BIB # Name Age Division Time
1 1 1 21673 Daniel Peters M20-24 00:16:57
2 2 1 21675 Brandon Whittaker M25-29 00:18:38
3 3 1 11670 Ethan Barber M10-14 00:18:40
4 4 2 21638 Jonathan Stallings M20-24 00:18:53
5 5 1 21637 Matthew Soderberg M15-19 00:19:46
6 6 2 21608 Robert Rappole M25-29 00:20:05
7 1 1 11693 Ericka Charles F25-29 00:20:10
8 7 3 11665 Tim Anderson M25-29 00:20:32
9 8 4 11680 Kevin Blalock M25-29 00:20:33
10 9 1 21663 Tim Williamson M35-39 00:20:47
11 10 1 21546 Austin Guiles M55-59 00:20:48
12 11 3 21652 Daniel Ulshen M20-24 00:20:50
13 12 2 21602 Jon Piccillo M10-14 00:21:00
14 2 1 21670 Margaret Barr F35-39 00:21:02
15 3 1 21649 Robin Tierney F30-34 00:21:15
16 13 2 11698 Brock Christensen M15-19 00:21:34
17 14 1 21550 Daniel Hassler M45-49 00:21:44
18 15 4 21591 Brian McPartland M20-24 00:21:45
19 4 2 21513 Melissa Cooper F25-29 00:21:55
20 5 1 11685 Drew Burgiss F20-24 00:22:15
21 16 3 11661 Jakeem Amuda M10-14 00:22:38
22 17 5 21539 Kyle Gibbs M20-24 00:23:17
23 18 6 21527 Dj Ellis M20-24 00:23:29
24 6 2 21656 Kristin Weimer F30-34 00:23:32
25 19 2 21607 Raymond Rainey M55-59 00:23:37
26 20 2 11691 Mitch Chadwick M35-39 00:23:40
27 21 1 21655 Eric Weimer M30-34 00:23:41
28 22 7 21648 Scott Tepen M20-24 00:23:41
29 23 3 21516 Jason Crockett M35-39 00:24:04
30 24 3 21595 Alex Muckenfuss M15-19 00:24:04
31 7 2 21645 Jaclyn Taylor F20-24 00:24:13
32 25 4 11666 Josiah Armstrong M15-19 00:24:30
33 26 5 21553 Richard Hevier M25-29 00:24:36
34 8 3 11671 Ally Bardill F20-24 00:24:38
35 27 4 21518 Morgan den Boef M10-14 00:24:48
36 28 6 21678 Robert Crawford M25-29 00:24:51
37 29 2 11690 Clay Cawthorne M45-49 00:24:51
38 30 4 21651 Keith Tricome M35-39 00:24:54
39 31 8 11668 Chuck Arundale Jr. M20-24 00:24:59
40 9 1 21578 Gabriela Low F10-14 00:25:04
41 32 7 21681 Cody Whitfield M25-29 00:25:04
41 32 5 21672 Ethan Neumann M10-14 00:25:04
43 34 6 21646 Malachi Templeton M10-14 00:25:07
44 10 1 21552 Elizabeth Hassler F15-19 00:25:10
45 35 1 11660 Matt Adams M40-44 00:25:20
46 36 2 21586 Griffin McClure M30-34 00:25:35
47 37 5 21514 Donald Cosler M35-39 00:26:07
48 11 1 21577 Angie Long F50-54 00:26:09
49 38 1 21511 Owen Cook M0-9 00:26:12
50 39 6 21613 Joe Riedl M35-39 00:26:16
51 12 2 21594 Anna Muckenfuss F15-19 00:26:20
52 13 1 21536 AnaMaria Fraticelli F45-49 00:26:21
53 40 7 21582 Josh Markham M10-14 00:26:24
54 41 8 21659 Jacob Wheeler M25-29 00:26:30
55 42 9 21571 Dave Kirk M25-29 00:26:32
56 14 2 21551 Jane Hassler F10-14 00:26:37
57 15 2 11662 Modina Amuda F35-39 00:26:48
58 16 3 21683 Leah Anderson F25-29 00:26:49
59 17 3 21529 Regan Fernandez F10-14 00:26:54
60 18 4 21658 Maggie West F25-29 00:26:55
61 43 2 21561 Ryan Jouannet M0-9 00:27:02
62 19 2 21547 Altagracia Guzman F45-49 00:27:18
63 44 7 21686 kirk west M35-39 00:27:22
64 20 3 11659 Bonnie Adams F35-39 00:27:27
65 21 4 21530 Riley Fernandez F10-14 00:27:29
66 45 10 21677 Marzolini Simon M25-29 00:27:34
67 22 1 21570 Terri Kennedy F40-44 00:27:36
68 23 4 21528 Kaylyn Fernandez F35-39 00:27:47
69 24 5 21644 Megan Talley F25-29 00:27:48
70 46 1 21624 Scott Sellers M50-54 00:27:49
71 25 6 21679 Julie Crawford F25-29 00:27:56
72 26 5 21560 Lindsey Jouannet F10-14 00:28:04
73 47 8 21512 Steven Cook M35-39 00:28:17
74 27 3 11694 Erin Cheely F30-34 00:28:20
75 28 5 11686 Julie Burke F35-39 00:28:23
76 48 2 21632 Gary Smith M50-54 00:28:25
77 29 4 21633 Logan Smith F20-24 00:28:26
78 30 3 21549 Hannah Hassler F15-19 00:28:47
79 49 5 21559 Mark Johnson M15-19 00:28:57
80 50 3 21558 David Johnson M55-59 00:28:57
81 31 3 11681 Rosalia Blanco F45-49 00:28:57
82 51 2 11697 Jared Christensen M40-44 00:28:59
83 52 3 21688 will west M0-9 00:29:12
84 32 7 21650 Katherine Toll F25-29 00:29:18
85 53 3 21620 Jeffrey Scales M50-54 00:29:18
86 54 4 21669 Joseph Barr M0-9 00:29:21
87 55 4 21519 Bart den Boef M50-54 00:29:21
88 56 8 21668 David Barr M10-14 00:29:25
89 33 4 21653 Nikki Walker F30-34 00:29:27
90 34 5 21515 Shelida Coward F30-34 00:29:28
91 35 4 21640 Wendy Stocking F45-49 00:29:28
92 57 3 21517 Michael Dawes M45-49 00:29:34
93 58 5 21588 Dwayne McGrody M50-54 00:29:37
94 59 3 21525 Derek Eichmann M30-34 00:29:38
95 60 4 11679 David Beugnot Jr M30-34 00:29:46
96 36 2 21572 stephanie kromer F40-44 00:29:46
97 61 6 21576 Dennis Long M50-54 00:29:52
98 62 7 11682 john brockman M50-54 00:29:58
99 37 8 11674 Faith Bauserman F25-29 00:30:02
100 38 9 21621 Sarah Schoenrock F25-29 00:30:02
101 63 11 21535 Jacob Foster M25-29 00:30:09
102 64 12 21555 Timothy Hopper M25-29 00:30:08
103 65 9 21573 Rob Lentchitsky M35-39 00:30:09
104 66 1 21522 Richard Dew M65-69 00:30:19
105 67 10 21562 Robert Jouannet M35-39 00:30:53
106 68 5 21563 Drew Jouannet M0-9 00:30:55
107 39 10 21671 Jessica Lockamy F25-29 00:30:56
108 40 11 21611 Jenn Rice F25-29 00:31:02
109 69 3 21667 Adam Barr M40-44 00:31:09
110 70 2 21612 Dave Riedl M65-69 00:31:30
111 71 13 11676 Mitchell Beasley M25-29 00:31:41
112 41 6 21575 Taylor Libby F30-34 00:31:47
113 42 1 21600 Vickie Pashion F60-64 00:32:12
114 43 5 11689 Ashleigh Cawthorne F20-24 00:32:21
115 72 11 21674 Travis Richardson M35-39 00:32:23
116 44 6 21619 Gabrielle Scales F10-14 00:32:30
117 45 6 21639 Kristen Stallings F20-24 00:32:35
118 46 5 21609 Marybel Reeves F45-49 00:32:46
119 47 7 21627 Yecenia Sierra F20-24 00:32:54
120 48 7 21597 Ava New F10-14 00:33:07
121 49 7 21635 Katie Smith F30-34 00:33:14
122 50 3 21661 Christa Wicker F40-44 00:33:26
123 73 14 21654 Darnell Webb M25-29 00:33:26
124 51 12 21676 Alexi-rae Webb F25-29 00:33:26
125 52 1 21610 Linda Reyner F55-59 00:33:34
126 74 9 21520 Ashwin den Boef M10-14 00:33:51
127 53 2 21623 Patricia Sellers F50-54 00:33:53
128 54 3 21509 Vickie Conley F50-54 00:34:10
129 55 8 21556 Gypsi Hunter F30-34 00:34:10
130 56 6 21618 Alicia Robinson F35-39 00:34:13
131 75 9 21533 Dillon Floyd M20-24 00:34:21
132 76 12 21647 Michael Templeton M35-39 00:34:28
133 57 4 11672 Debbie Bardill F50-54 00:34:41
134 58 7 21662 Karen Willard F35-39 00:34:42
135 59 8 21622 Nicole Scott F35-39 00:34:42
136 60 9 21689 janna farlow F30-34 00:35:00
137 61 9 21687 jenny west F35-39 00:35:02
138 77 4 21617 Will Roberts M45-49 00:35:10
139 62 8 21567 Joy Monet Kajogbola F20-24 00:35:30
140 78 4 21585 Skip Marsh M55-59 00:35:42
141 63 10 21593 Emily Moore F35-39 00:35:50
142 64 4 21538 KIRSTEN GEBHARDT F40-44 00:35:50
143 65 11 21625 Bijal Shah F35-39 00:36:04
144 66 5 21545 Beth Guiles F50-54 00:36:19
145 67 10 11678 Pamela Beugnot F30-34 00:36:33
146 79 5 21628 Cris Slentz M55-59 00:36:42
147 68 13 21603 Mackenzie Precht F25-29 00:37:22
148 80 10 21604 Joseph Precht M20-24 00:37:23
149 69 12 21590 Summer McLamb F35-39 00:37:23
150 70 14 21642 Kelly Strawberry F25-29 00:37:24
151 71 15 21636 Erin Snyder F25-29 00:37:24
152 72 5 11692 Tracey Chance F40-44 00:37:28
153 81 4 21569 Michael Kelley M40-44 00:37:34
154 73 1 21568 Amelia Kelley F0-9 00:37:34
155 82 6 21541 Avery Good M0-9 00:37:35
156 74 13 21537 Kristin Fuller F35-39 00:37:36
157 75 6 21682 Nevelle Hunter F45-49 00:37:38
158 76 4 21614 Grace Roberts F15-19 00:37:46
159 77 14 21521 Kara den Boef F35-39 00:37:47
160 78 8 21684 Isabelle Semplton F10-14 00:38:10
161 79 1 21657 Suzanne West F65-69 00:38:09
162 83 15 11669 Drew Austin M25-29 00:38:33
163 80 16 11684 Samantha Brown F25-29 00:38:33
164 84 8 21510 Kim Conley M50-54 00:38:45
165 81 6 11688 Kimberly Casey-White F50-54 00:38:53
166 85 9 21660 Edward White M50-54 00:38:54
167 82 9 21581 Emily Markham F20-24 00:39:17
168 83 6 21583 Tiffney Marley F40-44 00:39:34
169 84 9 11696 Layne Christensen F10-14 00:40:09
170 85 15 21564 Christine Jouannet F35-39 00:40:15
171 86 7 21566 Rebecca Joyner F40-44 00:40:18
172 86 5 21565 Benny Joyner M40-44 00:40:19
173 87 6 21641 Dylan Stone M15-19 00:40:19
174 87 16 11699 Elizabeth Christensen F35-39 00:40:24
175 88 5 21543 Anthony Green M45-49 00:40:45
176 88 8 21532 Paula Floyd F40-44 00:41:06
177 89 10 11700 Rachel Clark F10-14 00:41:17
178 90 17 21589 Lynn McGugan F35-39 00:41:18
179 91 11 21616 Faith Roberts F10-14 00:41:45
180 92 7 21615 Hope Roberts F45-49 00:41:44
181 93 2 21601 Carolyn Penn F60-64 00:42:12
182 94 18 21508 Sabrina Clawson F35-39 00:42:39
183 95 9 21592 tracy mitchell F40-44 00:42:45
184 96 19 21599 Abby Parcell F35-39 00:43:32
185 89 10 21605 Alan Price M50-54 00:43:43
186 97 2 21587 Deborah mccullen F55-59 00:44:35
187 98 7 21531 CINDY FERRELL F50-54 00:44:37
188 99 12 21685 Kaitlin Arundale F10-14 00:45:36
189 90 6 11667 Chuck Arundale M45-49 00:45:36
190 100 20 21634 Andrea Smith F35-39 00:45:42
191 101 8 21584 Julie Marsh F50-54 00:45:55
192 102 13 21540 Ellen Joy Gooch F10-14 00:46:39
193 103 14 21523 Sydney Diehl F10-14 00:46:39
194 104 11 11677 Kathleen Best F30-34 00:47:21
195 105 3 21631 Linda Smith F55-59 00:47:21
196 106 4 11673 Susan Barrow F55-59 00:48:29
197 107 21 21524 Mary Diehl F35-39 00:48:30
198 108 12 11687 Fa'tima Carmichael F30-34 00:50:56
199 109 13 21643 Anarthesia Sturdivant F30-34 00:50:56
200 110 15 21664 amanda wyckoff F10-14 00:50:57
201 111 14 21665 Kara Wykoff F30-34 00:51:01
202 112 8 21574 Tamara Lewis F45-49 00:52:23
203 113 10 21557 Sybil Ingram-Henson F40-44 00:53:53
204 114 22 11695 Yolanda Chisolm F35-39 00:53:53
205 115 15 11664 Angela Anderson F30-34 01:15:01
206 91 16 11663 Edward Anderson M25-29 01:15:01